Terminal Aerodrome Forecast
Issued by NWS

Current Version | Previous Version | Text Only | Print | Product List | Glossary On
Versions: 1 2 3 4 5 6 7 8 9 10 11 12 13 14 15 16 17 18 19 20 21 22 23 24 25 26 27 28 29 30 31 32 33 34 35 36 37 38 39 40 41 42 43 44 45 46
000
FTUS45 KBOI 221120
TAFMYL
TAF
KMYL 221120Z 2212/2312 VRB03KT P6SM OVC050
      TEMPO 2212/2215 1 1/2SM -SN OVC010
     FM221900 32005KT P6SM BKN080
     FM230800 VRB03KT 1SM BR OVC002=

USA.gov is the U.S. government's official web portal to all federal, state and local government web resources and services.